sensor_id;sensor_type;location;lat;lon;timestamp;temperature;humidity
30851;DHT22;17567;48.382;9.102;2022-07-01T01:22:54;14.70;99.90
30851;DHT22;17567;48.382;9.102;2022-07-01T01:27:54;14.70;99.90
30851;DHT22;17567;48.382;9.102;2022-07-01T01:32:56;14.60;99.90
30851;DHT22;17567;48.382;9.102;2022-07-01T01:37:57;14.60;99.90
30851;DHT22;17567;48.382;9.102;2022-07-01T01:42:58;14.60;99.90
30851;DHT22;17567;48.382;9.102;2022-07-01T01:47:58;14.60;99.90
30851;DHT22;17567;48.382;9.102;2022-07-01T01:52:59;14.60;99.90
30851;DHT22;17567;48.382;9.102;2022-07-01T01:58:00;14.50;99.90
30851;DHT22;17567;48.382;9.102;2022-07-01T02:03:01;14.30;99.90
30851;DHT22;17567;48.382;9.102;2022-07-01T02:08:03;14.30;99.90
30851;DHT22;17567;48.382;9.102;2022-07-01T02:13:04;14.30;99.90
30851;DHT22;17567;48.382;9.102;2022-07-01T02:18:05;14.30;99.90
30851;DHT22;17567;48.382;9.102;2022-07-01T02:23:06;14.30;99.90
30851;DHT22;17567;48.382;9.102;2022-07-01T02:28:08;14.30;99.90
30851;DHT22;17567;48.382;9.102;2022-07-01T02:33:09;14.30;99.90
30851;DHT22;17567;48.382;9.102;2022-07-01T02:38:10;14.30;99.90
30851;DHT22;17567;48.382;9.102;2022-07-01T02:43:11;14.10;99.90
30851;DHT22;17567;48.382;9.102;2022-07-01T02:48:12;14.10;99.90
30851;DHT22;17567;48.382;9.102;2022-07-01T02:53:13;14.10;99.90
30851;DHT22;17567;48.382;9.102;2022-07-01T02:58:14;14.10;99.90
30851;DHT22;17567;48.382;9.102;2022-07-01T03:03:15;14.10;99.90
30851;DHT22;17567;48.382;9.102;2022-07-01T03:08:16;14.00;99.90
30851;DHT22;17567;48.382;9.102;2022-07-01T03:13:17;14.10;99.90
30851;DHT22;17567;48.382;9.102;2022-07-01T03:18:19;13.90;99.90
30851;DHT22;17567;48.382;9.102;2022-07-01T03:23:20;13.80;99.90
30851;DHT22;17567;48.382;9.102;2022-07-01T03:28:21;13.80;99.90
30851;DHT22;17567;48.382;9.102;2022-07-01T03:33:22;13.70;99.90
30851;DHT22;17567;48.382;9.102;2022-07-01T03:38:23;13.70;99.90
30851;DHT22;17567;48.382;9.102;2022-07-01T03:43:27;13.60;99.90
30851;DHT22;17567;48.382;9.102;2022-07-01T03:48:28;13.60;99.90
30851;DHT22;17567;48.382;9.102;2022-07-01T03:53:29;13.60;99.90
30851;DHT22;17567;48.382;9.102;2022-07-01T03:58:48;13.50;99.90
30851;DHT22;17567;48.382;9.102;2022-07-01T04:03:48;13.50;99.90
30851;DHT22;17567;48.382;9.102;2022-07-01T04:08:50;13.40;99.90
30851;DHT22;17567;48.382;9.102;2022-07-01T04:13:51;13.30;99.90
30851;DHT22;17567;48.382;9.102;2022-07-01T04:18:53;13.40;99.90
30851;DHT22;17567;48.382;9.102;2022-07-01T04:23:53;13.30;99.90
30851;DHT22;17567;48.382;9.102;2022-07-01T04:28:55;13.20;99.90
30851;DHT22;17567;48.382;9.102;2022-07-01T04:33:55;13.20;99.90
30851;DHT22;17567;48.382;9.102;2022-07-01T04:38:57;13.30;99.90
30851;DHT22;17567;48.382;9.102;2022-07-01T04:43:58;13.20;99.90
30851;DHT22;17567;48.382;9.102;2022-07-01T04:48:59;13.20;99.90
30851;DHT22;17567;48.382;9.102;2022-07-01T04:54:01;13.10;99.90
30851;DHT22;17567;48.382;9.102;2022-07-01T04:59:02;13.10;99.90
30851;DHT22;17567;48.382;9.102;2022-07-01T05:04:04;13.10;99.90
30851;DHT22;17567;48.382;9.102;2022-07-01T05:09:04;13.00;99.90
30851;DHT22;17567;48.382;9.102;2022-07-01T05:14:06;13.10;99.90
30851;DHT22;17567;48.382;9.102;2022-07-01T05:19:07;13.00;99.90
30851;DHT22;17567;48.382;9.102;2022-07-01T05:24:29;13.00;99.90
30851;DHT22;17567;48.382;9.102;2022-07-01T05:29:30;13.00;99.90
30851;DHT22;17567;48.382;9.102;2022-07-01T05:34:31;13.00;99.90
30851;DHT22;17567;48.382;9.102;2022-07-01T05:39:32;13.10;99.90
30851;DHT22;17567;48.382;9.102;2022-07-01T05:44:33;13.00;99.90
30851;DHT22;17567;48.382;9.102;2022-07-01T05:49:34;13.10;99.90
30851;DHT22;17567;48.382;9.102;2022-07-01T05:54:35;13.20;99.90
30851;DHT22;17567;48.382;9.102;2022-07-01T05:59:36;13.30;99.90
30851;DHT22;17567;48.382;9.102;2022-07-01T06:04:36;13.30;99.90
30851;DHT22;17567;48.382;9.102;2022-07-01T06:09:37;13.30;99.90
30851;DHT22;17567;48.382;9.102;2022-07-01T06:14:38;13.30;99.90
30851;DHT22;17567;48.382;9.102;2022-07-01T06:19:39;13.30;99.90
30851;DHT22;17567;48.382;9.102;2022-07-01T06:24:40;13.40;99.90
30851;DHT22;17567;48.382;9.102;2022-07-01T06:29:41;13.50;99.90
30851;DHT22;17567;48.382;9.102;2022-07-01T06:34:42;13.50;99.90
30851;DHT22;17567;48.382;9.102;2022-07-01T06:39:43;13.50;99.90
30851;DHT22;17567;48.382;9.102;2022-07-01T06:44:44;13.50;99.90
30851;DHT22;17567;48.382;9.102;2022-07-01T06:49:45;13.50;99.90
30851;DHT22;17567;48.382;9.102;2022-07-01T06:54:46;13.60;99.90
30851;DHT22;17567;48.382;9.102;2022-07-01T06:59:47;13.50;99.90
30851;DHT22;17567;48.382;9.102;2022-07-01T07:04:49;13.50;99.90
30851;DHT22;17567;48.382;9.102;2022-07-01T07:09:50;13.50;99.90
30851;DHT22;17567;48.382;9.102;2022-07-01T07:14:51;13.40;99.90
30851;DHT22;17567;48.382;9.102;2022-07-01T07:19:52;13.40;99.90
30851;DHT22;17567;48.382;9.102;2022-07-01T07:24:56;13.40;99.90
30851;DHT22;17567;48.382;9.102;2022-07-01T07:30:01;13.50;99.90
30851;DHT22;17567;48.382;9.102;2022-07-01T07:35:04;13.50;99.90
30851;DHT22;17567;48.382;9.102;2022-07-01T07:40:08;13.50;99.90
30851;DHT22;17567;48.382;9.102;2022-07-01T07:45:15;13.50;99.90
30851;DHT22;17567;48.382;9.102;2022-07-01T07:50:16;13.40;99.90
30851;DHT22;17567;48.382;9.102;2022-07-01T07:55:17;13.30;99.90
30851;DHT22;17567;48.382;9.102;2022-07-01T08:00:18;13.30;99.90
30851;DHT22;17567;48.382;9.102;2022-07-01T08:05:19;13.30;99.90
30851;DHT22;17567;48.382;9.102;2022-07-01T08:10:20;13.40;99.90
30851;DHT22;17567;48.382;9.102;2022-07-01T08:15:20;13.40;99.90
30851;DHT22;17567;48.382;9.102;2022-07-01T08:20:21;13.40;99.90
30851;DHT22;17567;48.382;9.102;2022-07-01T08:25:22;13.40;99.90
30851;DHT22;17567;48.382;9.102;2022-07-01T08:30:23;13.30;99.90
30851;DHT22;17567;48.382;9.102;2022-07-01T08:35:24;13.40;99.90
30851;DHT22;17567;48.382;9.102;2022-07-01T08:40:29;13.40;99.90
30851;DHT22;17567;48.382;9.102;2022-07-01T08:45:32;13.40;99.90
30851;DHT22;17567;48.382;9.102;2022-07-01T08:50:39;13.30;99.90
30851;DHT22;17567;48.382;9.102;2022-07-01T08:55:41;13.30;99.90
30851;DHT22;17567;48.382;9.102;2022-07-01T09:06:23;13.30;99.90
30851;DHT22;17567;48.382;9.102;2022-07-01T09:11:25;13.30;99.90
30851;DHT22;17567;48.382;9.102;2022-07-01T09:16:26;13.30;99.90
30851;DHT22;17567;48.382;9.102;2022-07-01T09:21:31;13.20;99.90
30851;DHT22;17567;48.382;9.102;2022-07-01T09:26:32;13.20;99.90
30851;DHT22;17567;48.382;9.102;2022-07-01T09:31:33;13.20;99.90
30851;DHT22;17567;48.382;9.102;2022-07-01T09:36:38;13.20;99.90
30851;DHT22;17567;48.382;9.102;2022-07-01T09:41:43;13.10;99.90
30851;DHT22;17567;48.382;9.102;2022-07-01T09:46:56;13.20;99.90
30851;DHT22;17567;48.382;9.102;2022-07-01T09:51:57;13.30;99.90
30851;DHT22;17567;48.382;9.102;2022-07-01T09:56:57;13.30;99.90
30851;DHT22;17567;48.382;9.102;2022-07-01T10:01:59;13.40;99.90
30851;DHT22;17567;48.382;9.102;2022-07-01T10:12:40;13.40;99.90
30851;DHT22;17567;48.382;9.102;2022-07-01T10:17:45;13.50;99.90
30851;DHT22;17567;48.382;9.102;2022-07-01T10:22:46;13.50;99.90
30851;DHT22;17567;48.382;9.102;2022-07-01T10:28:17;13.60;99.90
30851;DHT22;17567;48.382;9.102;2022-07-01T10:44:13;13.80;99.90
30851;DHT22;17567;48.382;9.102;2022-07-01T10:49:19;13.90;99.90
30851;DHT22;17567;48.382;9.102;2022-07-01T10:54:53;13.60;99.90
30851;DHT22;17567;48.382;9.102;2022-07-01T11:05:02;13.80;99.90
30851;DHT22;17567;48.382;9.102;2022-07-01T11:10:06;13.90;99.90
30851;DHT22;17567;48.382;9.102;2022-07-01T11:15:08;13.90;99.90
30851;DHT22;17567;48.382;9.102;2022-07-01T11:20:12;14.00;99.90
30851;DHT22;17567;48.382;9.102;2022-07-01T11:25:13;14.20;99.90
30851;DHT22;17567;48.382;9.102;2022-07-01T11:30:15;13.90;99.90
30851;DHT22;17567;48.382;9.102;2022-07-01T11:35:22;14.00;99.90
30851;DHT22;17567;48.382;9.102;2022-07-01T11:40:42;14.20;99.90
30851;DHT22;17567;48.382;9.102;2022-07-01T11:50:46;14.50;99.90
30851;DHT22;17567;48.382;9.102;2022-07-01T11:55:47;14.70;99.90
30851;DHT22;17567;48.382;9.102;2022-07-01T12:00:49;14.70;99.90
30851;DHT22;17567;48.382;9.102;2022-07-01T12:05:50;14.70;99.90
30851;DHT22;17567;48.382;9.102;2022-07-01T12:10:53;14.80;99.90
30851;DHT22;17567;48.382;9.102;2022-07-01T12:15:54;14.90;99.90
30851;DHT22;17567;48.382;9.102;2022-07-01T12:21:05;14.90;99.90
30851;DHT22;17567;48.382;9.102;2022-07-01T12:26:06;15.10;99.90
30851;DHT22;17567;48.382;9.102;2022-07-01T12:31:09;15.20;99.90
30851;DHT22;17567;48.382;9.102;2022-07-01T12:36:10;15.60;99.90
30851;DHT22;17567;48.382;9.102;2022-07-01T12:41:30;16.00;99.90
30851;DHT22;17567;48.382;9.102;2022-07-01T12:46:32;16.10;99.90
30851;DHT22;17567;48.382;9.102;2022-07-01T12:51:33;16.50;99.90
30851;DHT22;17567;48.382;9.102;2022-07-01T12:56:34;16.60;99.90
30851;DHT22;17567;48.382;9.102;2022-07-01T13:01:35;17.20;99.90
30851;DHT22;17567;48.382;9.102;2022-07-01T13:06:35;17.40;99.90
30851;DHT22;17567;48.382;9.102;2022-07-01T13:11:36;17.80;99.90
30851;DHT22;17567;48.382;9.102;2022-07-01T13:16:37;18.20;99.90
30851;DHT22;17567;48.382;9.102;2022-07-01T13:21:38;18.20;99.90
30851;DHT22;17567;48.382;9.102;2022-07-01T13:26:39;18.30;99.90
30851;DHT22;17567;48.382;9.102;2022-07-01T13:31:40;18.60;99.90
30851;DHT22;17567;48.382;9.102;2022-07-01T13:36:41;19.00;99.90
30851;DHT22;17567;48.382;9.102;2022-07-01T13:41:42;19.10;99.90
30851;DHT22;17567;48.382;9.102;2022-07-01T13:46:43;18.90;99.90
30851;DHT22;17567;48.382;9.102;2022-07-01T13:51:45;18.90;99.90
30851;DHT22;17567;48.382;9.102;2022-07-01T13:56:46;19.40;99.90
30851;DHT22;17567;48.382;9.102;2022-07-01T14:01:47;19.70;99.90
30851;DHT22;17567;48.382;9.102;2022-07-01T14:06:48;20.30;99.90
30851;DHT22;17567;48.382;9.102;2022-07-01T14:11:48;20.70;99.90
30851;DHT22;17567;48.382;9.102;2022-07-01T14:16:49;21.70;99.90
30851;DHT22;17567;48.382;9.102;2022-07-01T14:21:50;21.70;99.90
30851;DHT22;17567;48.382;9.102;2022-07-01T14:26:51;21.90;99.90
30851;DHT22;17567;48.382;9.102;2022-07-01T14:31:52;22.10;99.90
30851;DHT22;17567;48.382;9.102;2022-07-01T14:36:53;22.40;99.90
30851;DHT22;17567;48.382;9.102;2022-07-01T14:41:55;22.20;99.90
30851;DHT22;17567;48.382;9.102;2022-07-01T14:46:56;22.60;99.90
30851;DHT22;17567;48.382;9.102;2022-07-01T14:51:57;23.30;99.90
30851;DHT22;17567;48.382;9.102;2022-07-01T14:56:57;23.50;99.90
30851;DHT22;17567;48.382;9.102;2022-07-01T15:02:01;24.30;99.90
30851;DHT22;17567;48.382;9.102;2022-07-01T15:57:46;24.60;99.90
30851;DHT22;17567;48.382;9.102;2022-07-01T16:02:47;24.20;99.90
30851;DHT22;17567;48.382;9.102;2022-07-01T16:07:54;23.80;99.90
30851;DHT22;17567;48.382;9.102;2022-07-01T16:13:02;23.50;99.90
30851;DHT22;17567;48.382;9.102;2022-07-01T16:18:07;23.10;99.90
30851;DHT22;17567;48.382;9.102;2022-07-01T16:23:11;22.70;99.90
30851;DHT22;17567;48.382;9.102;2022-07-01T16:28:12;22.20;99.90
30851;DHT22;17567;48.382;9.102;2022-07-01T16:33:14;22.10;99.90
30851;DHT22;17567;48.382;9.102;2022-07-01T16:38:24;21.80;99.90
30851;DHT22;17567;48.382;9.102;2022-07-01T16:43:33;21.50;99.90
30851;DHT22;17567;48.382;9.102;2022-07-01T16:48:37;21.90;99.90
30851;DHT22;17567;48.382;9.102;2022-07-01T16:53:43;22.40;99.90
30851;DHT22;17567;48.382;9.102;2022-07-01T16:58:57;22.70;99.90
30851;DHT22;17567;48.382;9.102;2022-07-01T17:03:59;22.50;99.90
30851;DHT22;17567;48.382;9.102;2022-07-01T17:09:01;23.00;99.90
30851;DHT22;17567;48.382;9.102;2022-07-01T17:14:02;23.60;99.90
30851;DHT22;17567;48.382;9.102;2022-07-01T17:19:04;23.80;99.90
30851;DHT22;17567;48.382;9.102;2022-07-01T17:24:08;24.10;99.90
30851;DHT22;17567;48.382;9.102;2022-07-01T17:29:09;24.30;99.90
30851;DHT22;17567;48.382;9.102;2022-07-01T17:34:14;24.20;99.90
30851;DHT22;17567;48.382;9.102;2022-07-01T17:39:16;23.80;99.90
30851;DHT22;17567;48.382;9.102;2022-07-01T17:44:23;23.70;99.90
30851;DHT22;17567;48.382;9.102;2022-07-01T17:49:27;23.80;99.90
30851;DHT22;17567;48.382;9.102;2022-07-01T17:54:30;23.70;99.90
30851;DHT22;17567;48.382;9.102;2022-07-01T17:59:31;23.80;99.90
30851;DHT22;17567;48.382;9.102;2022-07-01T18:04:33;23.40;99.90
30851;DHT22;17567;48.382;9.102;2022-07-01T18:09:37;23.00;99.90
30851;DHT22;17567;48.382;9.102;2022-07-01T18:25:22;22.10;99.90
30851;DHT22;17567;48.382;9.102;2022-07-01T18:30:39;21.70;99.90
30851;DHT22;17567;48.382;9.102;2022-07-01T18:35:41;20.90;99.90
30851;DHT22;17567;48.382;9.102;2022-07-01T18:40:42;20.60;99.90
30851;DHT22;17567;48.382;9.102;2022-07-01T18:45:43;20.50;99.90
30851;DHT22;17567;48.382;9.102;2022-07-01T18:50:44;20.60;99.90
30851;DHT22;17567;48.382;9.102;2022-07-01T18:55:45;20.40;99.90
30851;DHT22;17567;48.382;9.102;2022-07-01T19:00:46;20.20;99.90
30851;DHT22;17567;48.382;9.102;2022-07-01T19:05:47;19.80;99.90
30851;DHT22;17567;48.382;9.102;2022-07-01T19:10:48;19.60;99.90
30851;DHT22;17567;48.382;9.102;2022-07-01T19:15:51;19.60;99.90
30851;DHT22;17567;48.382;9.102;2022-07-01T19:20:53;19.40;99.90
30851;DHT22;17567;48.382;9.102;2022-07-01T19:25:54;19.40;99.90
30851;DHT22;17567;48.382;9.102;2022-07-01T19:30:56;19.30;99.90
30851;DHT22;17567;48.382;9.102;2022-07-01T19:35:57;19.10;99.90
30851;DHT22;17567;48.382;9.102;2022-07-01T19:40:58;18.70;99.90
30851;DHT22;17567;48.382;9.102;2022-07-01T19:51:00;18.40;99.90
30851;DHT22;17567;48.382;9.102;2022-07-01T19:56:02;18.20;99.90
30851;DHT22;17567;48.382;9.102;2022-07-01T20:01:04;18.00;99.90
30851;DHT22;17567;48.382;9.102;2022-07-01T20:06:04;17.70;99.90
30851;DHT22;17567;48.382;9.102;2022-07-01T20:11:06;17.60;99.90
30851;DHT22;17567;48.382;9.102;2022-07-01T20:36:12;17.30;99.90
30851;DHT22;17567;48.382;9.102;2022-07-01T20:41:13;17.10;99.90
30851;DHT22;17567;48.382;9.102;2022-07-01T20:46:15;17.00;99.90
30851;DHT22;17567;48.382;9.102;2022-07-01T20:51:17;16.70;99.90
30851;DHT22;17567;48.382;9.102;2022-07-01T20:56:17;16.10;99.90
30851;DHT22;17567;48.382;9.102;2022-07-01T21:01:18;15.50;99.90
30851;DHT22;17567;48.382;9.102;2022-07-01T21:06:19;15.00;99.90
30851;DHT22;17567;48.382;9.102;2022-07-01T21:11:20;15.00;99.90
30851;DHT22;17567;48.382;9.102;2022-07-01T21:16:20;15.00;99.90
30851;DHT22;17567;48.382;9.102;2022-07-01T21:21:21;14.80;99.90
30851;DHT22;17567;48.382;9.102;2022-07-01T21:26:22;14.80;99.90
30851;DHT22;17567;48.382;9.102;2022-07-01T21:31:23;14.70;99.90
30851;DHT22;17567;48.382;9.102;2022-07-01T21:36:24;14.70;99.90
30851;DHT22;17567;48.382;9.102;2022-07-01T21:41:25;14.90;99.90
30851;DHT22;17567;48.382;9.102;2022-07-01T21:46:30;14.90;99.90
30851;DHT22;17567;48.382;9.102;2022-07-01T21:51:38;14.90;99.90
30851;DHT22;17567;48.382;9.102;2022-07-01T21:56:40;14.80;99.90
30851;DHT22;17567;48.382;9.102;2022-07-01T22:01:42;14.70;99.90
30851;DHT22;17567;48.382;9.102;2022-07-01T22:06:43;14.60;99.90
30851;DHT22;17567;48.382;9.102;2022-07-01T22:11:59;14.50;99.90
30851;DHT22;17567;48.382;9.102;2022-07-01T22:17:01;14.50;99.90
30851;DHT22;17567;48.382;9.102;2022-07-01T22:22:03;14.30;99.90
30851;DHT22;17567;48.382;9.102;2022-07-01T22:27:05;14.30;99.90
30851;DHT22;17567;48.382;9.102;2022-07-01T22:32:07;14.50;99.90
30851;DHT22;17567;48.382;9.102;2022-07-01T22:37:08;14.50;99.90
30851;DHT22;17567;48.382;9.102;2022-07-01T22:42:12;14.40;99.90
30851;DHT22;17567;48.382;9.102;2022-07-01T22:47:16;14.30;99.90
30851;DHT22;17567;48.382;9.102;2022-07-01T22:52:49;14.30;99.90
30851;DHT22;17567;48.382;9.102;2022-07-01T23:03:11;14.40;99.90
30851;DHT22;17567;48.382;9.102;2022-07-01T23:08:28;14.50;99.90
30851;DHT22;17567;48.382;9.102;2022-07-01T23:13:39;14.50;99.90
30851;DHT22;17567;48.382;9.102;2022-07-01T23:19:04;14.30;99.90
30851;DHT22;17567;48.382;9.102;2022-07-01T23:24:07;14.40;99.90
30851;DHT22;17567;48.382;9.102;2022-07-01T23:29:09;14.30;99.90
30851;DHT22;17567;48.382;9.102;2022-07-01T23:34:10;14.10;99.90
30851;DHT22;17567;48.382;9.102;2022-07-01T23:39:11;13.80;99.90
30851;DHT22;17567;48.382;9.102;2022-07-01T23:44:12;13.70;99.90
30851;DHT22;17567;48.382;9.102;2022-07-01T23:49:13;13.80;99.90
30851;DHT22;17567;48.382;9.102;2022-07-01T23:54:14;13.70;99.90
30851;DHT22;17567;48.382;9.102;2022-07-01T23:59:14;13.60;99.90
